Time;durP1;ratioP1;P1;durP2;ratioP2;P2;SDS_P1;SDS_P2;PMS_P1;PMS_P2;Temp;Humidity;BMP_temperature;BMP_pressure;BME280_temperature;BME280_humidity;BME280_pressure;Samples;Min_cycle;Max_cycle;Signal;HPM_P1;HPM_P2
2022/10/06 00:02:16;;;;;;;6.10;2.58;;;;;;;;;;6003694;29;20045;-84
2022/10/06 00:05:18;;;;;;;4.95;2.90;;;;;;;;;;5986633;29;20049;-84
2022/10/06 00:08:20;;;;;;;5.28;2.35;;;;;;;;;;6010597;29;20054;-84
2022/10/06 00:11:21;;;;;;;5.35;2.55;;;;;;;;;;6017571;29;20409;-83
2022/10/06 00:14:23;;;;;;;5.85;2.50;;;;;;;;;;6015333;29;20057;-85
2022/10/06 00:17:25;;;;;;;4.68;2.60;;;;;;;;;;6005215;29;21892;-84
2022/10/06 00:20:28;;;;;;;4.20;2.30;;;;;;;;;;6018854;29;20061;-85
2022/10/06 00:23:30;;;;;;;4.07;2.25;;;;;;;;;;6001702;29;20393;-85
2022/10/06 00:26:31;;;;;;;5.03;2.20;;;;;;;;;;5986281;29;20046;-84
2022/10/06 00:29:34;;;;;;;3.67;2.57;;;;;;;;;;5987504;29;20061;-84
2022/10/06 00:32:36;;;;;;;5.53;2.40;;;;;;;;;;5983942;29;20062;-82
2022/10/06 00:35:37;;;;;;;4.65;1.60;;;;;;;;;;6001740;29;20057;-84
2022/10/06 00:38:39;;;;;;;6.13;1.10;;;;;;;;;;6002890;29;20054;-84
2022/10/06 00:41:44;;;;;;;4.45;0.95;;;;;;;;;;5999784;29;20049;-84
2022/10/06 00:44:48;;;;;;;2.65;1.00;;;;;;;;;;5999600;29;20054;-83
2022/10/06 00:47:50;;;;;;;2.40;0.80;;;;;;;;;;6003437;29;20427;-83
2022/10/06 00:50:54;;;;;;;1.75;0.77;;;;;;;;;;5969832;29;20436;-85
2022/10/06 00:53:56;;;;;;;1.98;0.60;;;;;;;;;;6006526;29;20053;-84
2022/10/06 00:56:59;;;;;;;2.77;0.47;;;;;;;;;;6008960;29;20064;-84
2022/10/06 01:00:03;;;;;;;1.02;0.90;;;;;;;;;;5997465;29;20073;-83
2022/10/06 01:03:10;;;;;;;2.05;0.65;;;;;;;;;;6000851;29;20046;-82
2022/10/06 01:06:12;;;;;;;1.65;0.68;;;;;;;;;;5992855;29;20054;-83
2022/10/06 01:09:15;;;;;;;3.08;0.68;;;;;;;;;;5980386;29;20194;-82
2022/10/06 01:12:18;;;;;;;1.83;0.82;;;;;;;;;;5985606;29;20508;-83
2022/10/06 01:15:21;;;;;;;3.83;0.80;;;;;;;;;;5982462;29;20050;-81
2022/10/06 01:18:25;;;;;;;1.05;0.45;;;;;;;;;;5977685;29;20050;-83
2022/10/06 01:21:42;;;;;;;2.15;0.70;;;;;;;;;;5978476;29;20067;-83
2022/10/06 01:24:46;;;;;;;1.92;0.55;;;;;;;;;;5978846;29;20053;-83
2022/10/06 01:27:52;;;;;;;1.40;0.60;;;;;;;;;;6006926;29;20060;-83
2022/10/06 01:31:00;;;;;;;3.88;0.77;;;;;;;;;;5982940;29;20046;-83
2022/10/06 01:34:04;;;;;;;3.28;0.82;;;;;;;;;;5998064;29;20060;-83
2022/10/06 01:37:06;;;;;;;3.15;0.70;;;;;;;;;;5993296;29;20066;-83
2022/10/06 01:40:08;;;;;;;1.50;0.65;;;;;;;;;;5964941;29;20053;-82
2022/10/06 01:43:10;;;;;;;2.05;0.47;;;;;;;;;;5984658;29;20053;-82
2022/10/06 01:46:12;;;;;;;1.25;0.40;;;;;;;;;;6012032;29;20420;-84
2022/10/06 01:49:14;;;;;;;4.03;0.60;;;;;;;;;;5957201;29;20519;-83
2022/10/06 01:52:16;;;;;;;0.63;0.52;;;;;;;;;;6011902;29;20142;-83
2022/10/06 01:55:18;;;;;;;2.53;0.70;;;;;;;;;;5982584;29;20444;-82
2022/10/06 01:58:20;;;;;;;2.28;0.75;;;;;;;;;;5994977;29;20429;-83
2022/10/06 02:01:22;;;;;;;2.90;0.88;;;;;;;;;;5995661;29;20066;-82
2022/10/06 02:04:24;;;;;;;1.88;0.60;;;;;;;;;;5994735;29;20049;-81
2022/10/06 02:07:26;;;;;;;2.33;0.63;;;;;;;;;;5969054;29;20062;-83
2022/10/06 02:10:28;;;;;;;3.38;0.70;;;;;;;;;;5992612;29;20593;-82
2022/10/06 02:13:32;;;;;;;2.28;0.63;;;;;;;;;;5982084;29;20034;-83
2022/10/06 02:16:34;;;;;;;0.63;0.50;;;;;;;;;;5993875;29;20773;-82
2022/10/06 02:19:36;;;;;;;2.43;0.67;;;;;;;;;;5980629;29;20060;-83
2022/10/06 02:22:39;;;;;;;2.60;0.70;;;;;;;;;;6010151;29;20068;-83
2022/10/06 02:25:41;;;;;;;;;;;;;;;;;;5995977;29;20062;-81
2022/10/06 02:28:46;;;;;;;1.55;1.20;;;;;;;;;;5992631;29;19948;-82
2022/10/06 02:31:52;;;;;;;2.45;1.13;;;;;;;;;;5963363;29;20045;-82
2022/10/06 02:34:54;;;;;;;5.07;1.40;;;;;;;;;;5978766;29;20052;-83
2022/10/06 02:37:56;;;;;;;2.88;1.80;;;;;;;;;;5982781;29;20058;-83
2022/10/06 02:40:59;;;;;;;2.53;1.40;;;;;;;;;;6011380;29;20110;-81
2022/10/06 02:44:00;;;;;;;3.63;1.55;;;;;;;;;;5996691;29;20909;-82
2022/10/06 02:47:03;;;;;;;5.28;1.75;;;;;;;;;;5994442;29;20045;-83
2022/10/06 02:50:23;;;;;;;3.33;1.70;;;;;;;;;;5983198;29;20072;-83
2022/10/06 02:53:25;;;;;;;7.07;2.30;;;;;;;;;;5983392;29;20050;-82
2022/10/06 02:56:26;;;;;;;6.57;2.00;;;;;;;;;;5998680;29;20056;-84
2022/10/06 02:59:30;;;;;;;4.45;1.98;;;;;;;;;;5998425;29;20085;-84
2022/10/06 03:02:32;;;;;;;4.00;1.85;;;;;;;;;;6014426;29;20034;-83
2022/10/06 03:05:34;;;;;;;2.90;2.33;;;;;;;;;;5997549;29;20128;-83
2022/10/06 03:08:36;;;;;;;5.10;2.30;;;;;;;;;;5963567;29;20061;-83
2022/10/06 03:11:40;;;;;;;5.18;2.55;;;;;;;;;;5982091;29;20077;-84
2022/10/06 03:14:44;;;;;;;3.42;1.90;;;;;;;;;;6015426;29;20092;-83
2022/10/06 03:17:49;;;;;;;2.63;2.03;;;;;;;;;;6000461;29;20050;-83
2022/10/06 03:20:52;;;;;;;3.67;1.70;;;;;;;;;;6013050;29;20046;-81
2022/10/06 03:23:56;;;;;;;;;;;;;;;;;;5958990;29;20050;-83
2022/10/06 03:26:59;;;;;;;4.22;1.50;;;;;;;;;;5970247;29;19931;-83
2022/10/06 03:30:03;;;;;;;3.78;2.10;;;;;;;;;;6004838;29;20050;-82
2022/10/06 03:33:08;;;;;;;3.75;2.00;;;;;;;;;;5981334;29;20080;-82
2022/10/06 03:36:13;;;;;;;6.18;2.38;;;;;;;;;;6007168;24;20101;-83
2022/10/06 03:39:14;;;;;;;5.60;2.03;;;;;;;;;;6039772;29;20229;-84
2022/10/06 03:42:16;;;;;;;3.85;2.10;;;;;;;;;;6045679;29;20067;-84
2022/10/06 03:45:19;;;;;;;4.13;2.35;;;;;;;;;;6027180;29;20402;-84
2022/10/06 03:48:21;;;;;;;4.88;2.55;;;;;;;;;;6041140;29;20048;-83
2022/10/06 03:51:29;;;;;;;7.85;2.42;;;;;;;;;;6028111;29;20092;-83
2022/10/06 03:54:31;;;;;;;7.22;2.33;;;;;;;;;;6032401;29;20044;-84
2022/10/06 03:57:33;;;;;;;5.27;2.10;;;;;;;;;;6029498;29;20060;-84
2022/10/06 04:00:35;;;;;;;5.18;3.42;;;;;;;;;;6032139;29;20099;-84
2022/10/06 04:03:37;;;;;;;3.67;2.20;;;;;;;;;;6030702;29;20049;-83
2022/10/06 04:06:41;;;;;;;3.47;2.00;;;;;;;;;;6030224;29;20059;-84
2022/10/06 04:09:45;;;;;;;3.28;2.03;;;;;;;;;;6029827;29;20052;-84
2022/10/06 04:12:49;;;;;;;6.80;2.20;;;;;;;;;;6046831;29;20053;-82
2022/10/06 04:15:51;;;;;;;4.38;1.85;;;;;;;;;;6002789;29;20048;-83
2022/10/06 04:18:55;;;;;;;6.53;2.15;;;;;;;;;;6045149;29;20048;-83
2022/10/06 04:21:57;;;;;;;4.80;2.08;;;;;;;;;;6031550;29;20139;-82
2022/10/06 04:25:00;;;;;;;5.22;2.15;;;;;;;;;;6044480;29;20116;-84
2022/10/06 04:28:02;;;;;;;4.47;2.00;;;;;;;;;;6028127;29;20045;-81
2022/10/06 04:31:11;;;;;;;5.43;2.17;;;;;;;;;;6028673;29;20124;-83
2022/10/06 04:34:13;;;;;;;11.68;3.40;;;;;;;;;;6028830;29;20052;-83
2022/10/06 04:37:16;;;;;;;4.20;1.90;;;;;;;;;;6041526;29;20053;-84
2022/10/06 04:40:18;;;;;;;6.90;1.90;;;;;;;;;;6031180;29;20128;-83
2022/10/06 04:43:24;;;;;;;4.78;1.80;;;;;;;;;;6028841;29;20052;-85
2022/10/06 04:46:26;;;;;;;7.43;2.38;;;;;;;;;;6014337;29;20061;-83
2022/10/06 04:49:44;;;;;;;5.82;2.15;;;;;;;;;;6018203;29;20052;-84
2022/10/06 04:52:47;;;;;;;10.38;2.35;;;;;;;;;;6018639;29;20509;-85
2022/10/06 04:56:01;;;;;;;9.05;2.42;;;;;;;;;;6042638;29;20063;-82
2022/10/06 04:59:05;;;;;;;9.27;2.65;;;;;;;;;;6046834;29;20044;-82
2022/10/06 05:02:10;;;;;;;5.50;2.10;;;;;;;;;;6016585;29;20161;-82
2022/10/06 05:05:12;;;;;;;8.57;2.67;;;;;;;;;;6013075;29;20063;-82
2022/10/06 05:08:15;;;;;;;9.53;2.57;;;;;;;;;;6038875;29;20580;-82
2022/10/06 05:11:18;;;;;;;11.48;3.10;;;;;;;;;;6013914;29;20405;-83
2022/10/06 05:14:25;;;;;;;6.82;3.35;;;;;;;;;;6043827;29;20139;-82
2022/10/06 05:17:27;;;;;;;8.18;2.50;;;;;;;;;;6024571;29;20059;-82
2022/10/06 05:20:28;;;;;;;6.03;2.60;;;;;;;;;;6028113;29;20076;-80
2022/10/06 05:23:33;;;;;;;9.15;3.35;;;;;;;;;;6027260;29;20056;-81
2022/10/06 05:26:35;;;;;;;7.82;2.85;;;;;;;;;;6023284;29;20726;-81
2022/10/06 05:29:41;;;;;;;8.43;3.00;;;;;;;;;;6039356;29;20539;-82
2022/10/06 05:32:45;;;;;;;8.52;2.67;;;;;;;;;;6028085;29;20048;-81
2022/10/06 05:35:58;;;;;;;7.95;2.70;;;;;;;;;;6023329;29;20076;-82
2022/10/06 05:39:01;;;;;;;11.85;3.20;;;;;;;;;;6038806;29;20052;-82
2022/10/06 05:42:09;;;;;;;8.38;2.95;;;;;;;;;;6026956;29;20843;-83
2022/10/06 05:45:11;;;;;;;9.97;2.70;;;;;;;;;;6025197;29;20088;-81
2022/10/06 05:48:14;;;;;;;7.43;2.93;;;;;;;;;;6009913;29;20076;-81
2022/10/06 05:51:17;;;;;;;7.57;2.55;;;;;;;;;;6024479;29;20044;-81
2022/10/06 05:54:19;;;;;;;7.35;2.35;;;;;;;;;;6024718;29;20037;-81
2022/10/06 05:57:22;;;;;;;10.45;2.65;;;;;;;;;;6024076;29;20059;-81
2022/10/06 06:00:23;;;;;;;12.98;2.60;;;;;;;;;;6038995;29;20048;-81
2022/10/06 06:03:25;;;;;;;8.50;1.95;;;;;;;;;;6011226;29;20053;-81
2022/10/06 06:06:30;;;;;;;7.38;2.30;;;;;;;;;;6024361;29;20052;-80
2022/10/06 06:09:35;;;;;;;11.32;2.15;;;;;;;;;;6024652;29;20048;-80
2022/10/06 06:12:38;;;;;;;3.80;1.92;;;;;;;;;;6023265;29;20099;-81
2022/10/06 06:15:59;;;;;;;5.88;2.20;;;;;;;;;;6038867;29;20056;-82
2022/10/06 06:19:02;;;;;;;7.40;1.92;;;;;;;;;;6026658;29;20104;-83
2022/10/06 06:22:03;;;;;;;8.15;2.47;;;;;;;;;;6044654;29;20040;-83
2022/10/06 06:25:08;;;;;;;4.63;1.85;;;;;;;;;;6029457;29;20402;-83
2022/10/06 06:28:10;;;;;;;4.82;1.85;;;;;;;;;;6032800;29;20452;-81
2022/10/06 06:31:14;;;;;;;4.82;2.15;;;;;;;;;;6044272;29;20107;-82
2022/10/06 06:34:24;;;;;;;5.55;2.00;;;;;;;;;;6029176;29;20052;-82
2022/10/06 06:37:30;;;;;;;7.97;2.03;;;;;;;;;;6013025;29;20552;-82
2022/10/06 06:40:33;;;;;;;9.02;1.90;;;;;;;;;;6045950;29;20585;-82
2022/10/06 06:43:34;;;;;;;4.82;1.70;;;;;;;;;;6041645;29;20544;-82
2022/10/06 06:47:00;;;;;;;9.38;1.67;;;;;;;;;;6034677;29;20498;-83
2022/10/06 06:50:03;;;;;;;5.90;1.73;;;;;;;;;;6031933;29;20057;-83
2022/10/06 06:53:04;;;;;;;;;;;;;;;;;;6014852;29;20056;-81
2022/10/06 06:56:09;;;;;;;8.45;1.88;;;;;;;;;;6044402;29;20512;-82
2022/10/06 06:59:12;;;;;;;9.30;1.58;;;;;;;;;;6048306;29;20052;-81
2022/10/06 07:02:18;;;;;;;10.63;2.15;;;;;;;;;;6014977;29;20040;-81
2022/10/06 07:05:21;;;;;;;8.00;1.48;;;;;;;;;;6026337;29;20045;-81
2022/10/06 07:08:24;;;;;;;6.35;1.80;;;;;;;;;;6027626;29;20528;-80
2022/10/06 07:11:29;;;;;;;7.05;1.83;;;;;;;;;;6027957;29;20060;-81
2022/10/06 07:14:31;;;;;;;11.95;1.88;;;;;;;;;;6044923;29;20056;-81
2022/10/06 07:27:46;;;;;;;7.47;1.38;;;;;;;;;;6031372;29;20057;-80
2022/10/06 07:30:51;;;;;;;7.75;2.20;;;;;;;;;;6030857;29;20828;-84
2022/10/06 07:33:54;;;;;;;11.48;2.58;;;;;;;;;;6033674;29;20048;-83
2022/10/06 07:36:56;;;;;;;10.18;2.28;;;;;;;;;;6018227;29;20886;-80
2022/10/06 07:40:05;;;;;;;7.93;2.28;;;;;;;;;;6015758;29;20097;-81
2022/10/06 07:43:07;;;;;;;9.40;1.98;;;;;;;;;;6030416;29;20052;-82
2022/10/06 07:46:17;;;;;;;8.65;1.80;;;;;;;;;;6023835;29;20045;-82
2022/10/06 07:49:54;;;;;;;6.85;1.90;;;;;;;;;;6029202;29;20045;-82
2022/10/06 07:52:56;;;;;;;7.18;1.50;;;;;;;;;;6046557;29;20096;-82
2022/10/06 07:56:05;;;;;;;7.70;1.70;;;;;;;;;;6044448;29;20493;-83
2022/10/06 07:59:12;;;;;;;7.53;2.05;;;;;;;;;;6033420;29;20804;-84
2022/10/06 08:02:14;;;;;;;8.68;1.67;;;;;;;;;;6040648;29;20048;-84
2022/10/06 08:05:16;;;;;;;10.02;2.03;;;;;;;;;;6027688;29;20064;-84
2022/10/06 08:08:18;;;;;;;6.75;1.70;;;;;;;;;;6025284;29;20045;-82
2022/10/06 08:11:21;;;;;;;9.23;1.75;;;;;;;;;;6014927;29;20414;-82
2022/10/06 08:14:23;;;;;;;15.55;2.38;;;;;;;;;;6015814;29;20091;-83
2022/10/06 08:17:24;;;;;;;7.97;1.50;;;;;;;;;;6043861;29;20124;-84
2022/10/06 08:20:26;;;;;;;5.30;1.48;;;;;;;;;;6014743;29;21515;-84
2022/10/06 08:23:28;;;;;;;11.10;2.10;;;;;;;;;;6046825;29;20524;-84
2022/10/06 08:26:30;;;;;;;8.88;2.10;;;;;;;;;;6026037;29;20493;-82
2022/10/06 08:29:31;;;;;;;8.27;1.70;;;;;;;;;;6041478;29;20045;-84
2022/10/06 08:32:33;;;;;;;7.07;1.77;;;;;;;;;;6029777;29;20300;-83
2022/10/06 08:35:35;;;;;;;7.40;1.52;;;;;;;;;;6028648;29;20041;-84
2022/10/06 08:38:37;;;;;;;6.75;1.50;;;;;;;;;;6045448;29;20055;-83
2022/10/06 08:41:49;;;;;;;4.93;1.73;;;;;;;;;;6028620;29;20048;-83
2022/10/06 08:44:58;;;;;;;11.15;1.88;;;;;;;;;;6045079;29;20059;-81
2022/10/06 08:48:06;;;;;;;8.43;1.50;;;;;;;;;;6028408;29;20422;-83
2022/10/06 08:51:29;;;;;;;10.68;2.33;;;;;;;;;;6045759;29;20096;-82
2022/10/06 08:54:44;;;;;;;11.52;1.90;;;;;;;;;;6027265;29;20351;-79
2022/10/06 08:58:13;;;;;;;9.45;2.00;;;;;;;;;;6023772;29;20052;-81
2022/10/06 09:01:18;;;;;;;5.60;1.52;;;;;;;;;;6025739;29;20565;-82
2022/10/06 09:04:30;;;;;;;5.78;1.70;;;;;;;;;;6044492;29;20056;-81
2022/10/06 09:07:51;;;;;;;7.25;1.40;;;;;;;;;;6024890;29;20040;-79
2022/10/06 09:11:08;;;;;;;8.18;1.50;;;;;;;;;;6025299;29;20056;-79
2022/10/06 09:14:21;;;;;;;7.20;1.58;;;;;;;;;;6026688;29;20045;-80
2022/10/06 09:17:34;;;;;;;10.65;1.98;;;;;;;;;;6025632;29;20047;-81
2022/10/06 09:20:45;;;;;;;8.18;1.95;;;;;;;;;;6028809;29;20127;-79
2022/10/06 09:23:52;;;;;;;7.30;2.00;;;;;;;;;;6047590;29;20710;-81
2022/10/06 09:26:57;;;;;;;8.00;1.40;;;;;;;;;;6025821;29;20147;-79
2022/10/06 09:30:07;;;;;;;8.60;1.40;;;;;;;;;;6042742;29;20784;-81
2022/10/06 09:33:19;;;;;;;11.25;1.80;;;;;;;;;;6026571;29;20056;-79
2022/10/06 09:36:21;;;;;;;9.23;1.48;;;;;;;;;;6043152;29;20503;-81
2022/10/06 09:39:25;;;;;;;8.93;1.50;;;;;;;;;;6009490;29;20057;-80
2022/10/06 09:42:34;;;;;;;7.07;1.20;;;;;;;;;;6043898;29;20056;-82
2022/10/06 09:45:36;;;;;;;7.38;1.13;;;;;;;;;;6042457;29;20106;-81
2022/10/06 09:48:38;;;;;;;5.03;1.30;;;;;;;;;;6025503;29;20745;-78
2022/10/06 09:51:40;;;;;;;4.82;1.20;;;;;;;;;;6042255;29;20077;-79
2022/10/06 09:54:43;;;;;;;7.03;1.50;;;;;;;;;;6022371;29;20049;-80
2022/10/06 09:57:50;;;;;;;4.72;1.00;;;;;;;;;;6028142;29;20075;-79
2022/10/06 10:00:54;;;;;;;9.45;1.20;;;;;;;;;;6041299;29;20052;-80
2022/10/06 10:04:04;;;;;;;5.68;1.60;;;;;;;;;;6046368;29;20055;-80
2022/10/06 10:07:27;;;;;;;6.53;1.40;;;;;;;;;;6014082;29;20052;-84
2022/10/06 10:10:29;;;;;;;4.97;1.30;;;;;;;;;;6039213;29;20094;-82
2022/10/06 10:13:41;;;;;;;5.75;1.30;;;;;;;;;;6040101;29;20053;-81
2022/10/06 10:16:44;;;;;;;4.93;1.17;;;;;;;;;;6007460;29;20254;-80
2022/10/06 10:19:52;;;;;;;5.82;1.40;;;;;;;;;;6024989;29;20060;-81
2022/10/06 10:22:58;;;;;;;5.80;1.00;;;;;;;;;;6024530;29;20048;-81
2022/10/06 10:26:25;;;;;;;5.65;1.08;;;;;;;;;;6007167;29;22609;-81
2022/10/06 10:29:47;;;;;;;4.55;0.80;;;;;;;;;;6043270;29;20061;-79
2022/10/06 10:33:09;;;;;;;5.28;1.00;;;;;;;;;;6024945;29;20092;-81
2022/10/06 10:36:15;;;;;;;5.90;0.90;;;;;;;;;;6038458;29;20414;-80
2022/10/06 10:39:27;;;;;;;4.13;0.95;;;;;;;;;;6027183;29;20080;-80
2022/10/06 10:42:36;;;;;;;3.70;1.00;;;;;;;;;;6028163;29;20055;-80
2022/10/06 10:45:45;;;;;;;3.70;1.00;;;;;;;;;;6027347;29;20057;-80
2022/10/06 10:49:00;;;;;;;6.97;1.23;;;;;;;;;;6027211;29;20103;-81
2022/10/06 10:52:14;;;;;;;3.60;0.80;;;;;;;;;;6045796;29;20056;-81
2022/10/06 10:55:38;;;;;;;4.15;0.90;;;;;;;;;;6042502;29;20045;-81
2022/10/06 10:58:42;;;;;;;4.75;1.08;;;;;;;;;;6044729;29;20053;-82
2022/10/06 11:01:52;;;;;;;2.42;0.75;;;;;;;;;;6042625;29;20060;-81
2022/10/06 11:05:04;;;;;;;6.30;1.13;;;;;;;;;;6047453;29;20049;-81
2022/10/06 11:08:30;;;;;;;4.75;0.88;;;;;;;;;;6050901;29;20056;-82
2022/10/06 11:12:07;;;;;;;3.42;0.70;;;;;;;;;;6038809;29;20041;-82
2022/10/06 11:15:34;;;;;;;5.72;1.00;;;;;;;;;;6053332;29;20053;-83
2022/10/06 11:18:57;;;;;;;3.00;0.85;;;;;;;;;;6053792;29;20139;-83
2022/10/06 11:22:16;;;;;;;5.10;1.13;;;;;;;;;;6041359;29;20063;-82
2022/10/06 11:25:35;;;;;;;2.10;0.93;;;;;;;;;;6061383;29;20063;-83
2022/10/06 11:28:43;;;;;;;3.78;1.00;;;;;;;;;;6054175;29;20056;-82
2022/10/06 11:31:50;;;;;;;4.05;0.90;;;;;;;;;;6031370;29;20088;-82
2022/10/06 11:34:52;;;;;;;3.55;0.75;;;;;;;;;;6052668;29;20245;-81
2022/10/06 11:38:09;;;;;;;3.80;0.80;;;;;;;;;;6059633;29;20052;-81
2022/10/06 11:41:22;;;;;;;5.90;0.90;;;;;;;;;;6069836;29;20048;-81
2022/10/06 11:44:31;;;;;;;3.88;0.70;;;;;;;;;;6052910;29;20063;-81
2022/10/06 11:48:00;;;;;;;4.88;0.80;;;;;;;;;;6034567;29;20138;-82
2022/10/06 11:51:22;;;;;;;6.00;1.25;;;;;;;;;;6040197;29;20044;-82
2022/10/06 11:54:34;;;;;;;3.88;0.70;;;;;;;;;;6030863;29;20041;-81
2022/10/06 11:58:06;;;;;;;6.07;0.90;;;;;;;;;;6031670;29;20139;-82
2022/10/06 12:01:35;;;;;;;3.75;0.80;;;;;;;;;;6046576;29;20045;-81
2022/10/06 12:04:36;;;;;;;5.32;1.38;;;;;;;;;;6028392;29;20192;-82
2022/10/06 12:07:56;;;;;;;2.92;0.90;;;;;;;;;;6031814;29;20060;-81
2022/10/06 12:10:58;;;;;;;6.07;1.45;;;;;;;;;;6031043;29;20156;-80
2022/10/06 12:14:00;;;;;;;4.30;0.82;;;;;;;;;;6047157;29;20068;-81
2022/10/06 12:17:39;;;;;;;5.70;1.10;;;;;;;;;;6046489;29;20044;-81
2022/10/06 12:20:55;;;;;;;5.47;1.08;;;;;;;;;;6030369;29;20099;-81
2022/10/06 12:24:01;;;;;;;2.53;0.70;;;;;;;;;;6030132;29;20083;-82
2022/10/06 12:27:26;;;;;;;3.67;0.77;;;;;;;;;;6043512;29;20049;-81
2022/10/06 12:30:51;;;;;;;4.22;0.75;;;;;;;;;;6047044;29;20494;-82
2022/10/06 12:33:54;;;;;;;7.10;0.80;;;;;;;;;;6030508;29;20199;-81
2022/10/06 12:37:34;;;;;;;6.70;1.20;;;;;;;;;;6045046;29;20444;-81
2022/10/06 12:40:47;;;;;;;6.28;0.90;;;;;;;;;;6046339;29;20111;-81
2022/10/06 12:43:54;;;;;;;4.93;0.80;;;;;;;;;;6050134;29;20607;-80
2022/10/06 12:47:00;;;;;;;2.67;1.00;;;;;;;;;;6046583;29;20048;-80
2022/10/06 12:50:15;;;;;;;3.28;0.70;;;;;;;;;;6030647;29;20049;-80
2022/10/06 12:53:23;;;;;;;3.90;1.10;;;;;;;;;;6016099;29;20049;-81
2022/10/06 12:56:37;;;;;;;4.85;1.00;;;;;;;;;;6045566;29;20057;-83
2022/10/06 12:59:39;;;;;;;4.70;0.88;;;;;;;;;;6044270;29;20052;-82
2022/10/06 13:02:42;;;;;;;2.25;0.82;;;;;;;;;;6046351;29;20063;-81
2022/10/06 13:05:50;;;;;;;3.80;1.00;;;;;;;;;;6044093;29;20052;-81
2022/10/06 13:09:04;;;;;;;3.25;0.88;;;;;;;;;;6030513;29;20055;-80
2022/10/06 13:12:35;;;;;;;3.60;0.60;;;;;;;;;;6045803;29;20072;-82
2022/10/06 13:15:40;;;;;;;2.72;0.73;;;;;;;;;;6044241;29;20061;-81
2022/10/06 13:18:42;;;;;;;3.20;0.65;;;;;;;;;;6025582;29;20057;-82
2022/10/06 13:21:44;;;;;;;5.95;0.95;;;;;;;;;;6033730;29;20426;-81
2022/10/06 13:24:46;;;;;;;4.55;0.80;;;;;;;;;;6051858;29;20804;-80
2022/10/06 13:27:49;;;;;;;7.40;0.80;;;;;;;;;;6045412;29;20045;-80
2022/10/06 13:30:57;;;;;;;3.40;0.90;;;;;;;;;;6028637;29;20150;-81
2022/10/06 13:34:03;;;;;;;4.55;0.90;;;;;;;;;;6047572;29;20044;-82
2022/10/06 13:37:04;;;;;;;3.55;0.68;;;;;;;;;;6042424;29;20063;-81
2022/10/06 13:40:14;;;;;;;2.50;0.52;;;;;;;;;;6028601;29;20059;-81
2022/10/06 13:43:28;;;;;;;3.97;0.80;;;;;;;;;;6044166;29;20102;-81
2022/10/06 13:46:36;;;;;;;3.63;0.90;;;;;;;;;;6015825;29;20041;-81
2022/10/06 13:49:55;;;;;;;3.13;0.82;;;;;;;;;;6040706;29;20143;-81
2022/10/06 13:52:57;;;;;;;4.68;1.10;;;;;;;;;;6011451;29;20053;-81
2022/10/06 13:55:59;;;;;;;2.35;0.60;;;;;;;;;;6028430;29;20198;-82
2022/10/06 13:59:33;;;;;;;3.95;0.70;;;;;;;;;;6048081;29;20139;-82
2022/10/06 14:02:35;;;;;;;3.97;0.80;;;;;;;;;;6015834;29;20118;-82
2022/10/06 14:05:44;;;;;;;3.58;0.60;;;;;;;;;;6016878;29;20060;-82
2022/10/06 14:08:52;;;;;;;5.60;1.00;;;;;;;;;;6031433;29;20048;-81
2022/10/06 14:12:04;;;;;;;4.03;0.98;;;;;;;;;;6028980;29;21216;-81
2022/10/06 14:15:16;;;;;;;4.82;0.82;;;;;;;;;;6028730;29;20100;-81
2022/10/06 14:18:23;;;;;;;5.38;0.68;;;;;;;;;;6030448;29;20047;-81
2022/10/06 14:21:44;;;;;;;3.40;1.20;;;;;;;;;;6030125;29;20057;-81
2022/10/06 14:24:51;;;;;;;3.97;0.80;;;;;;;;;;6026627;29;20506;-81
2022/10/06 14:27:54;;;;;;;4.10;0.90;;;;;;;;;;6043891;29;20059;-83
2022/10/06 14:30:56;;;;;;;2.30;0.80;;;;;;;;;;6045908;29;20041;-81
2022/10/06 14:33:58;;;;;;;;;;;;;;;;;;6045475;29;20115;-82
2022/10/06 14:37:00;;;;;;;3.75;0.90;;;;;;;;;;6028298;29;20256;-82
2022/10/06 14:40:02;;;;;;;4.28;0.70;;;;;;;;;;6040235;29;20072;-82
2022/10/06 14:43:03;;;;;;;4.65;0.90;;;;;;;;;;6034299;29;20397;-81
2022/10/06 14:46:08;;;;;;;4.15;0.80;;;;;;;;;;6031175;29;20059;-81
2022/10/06 14:49:12;;;;;;;4.25;0.70;;;;;;;;;;6036795;29;20710;-80
2022/10/06 14:52:13;;;;;;;3.97;0.75;;;;;;;;;;6049715;29;20052;-80
2022/10/06 14:55:15;;;;;;;4.13;0.75;;;;;;;;;;6015152;29;20052;-82
2022/10/06 14:58:17;;;;;;;2.78;0.60;;;;;;;;;;6048916;29;20049;-81
2022/10/06 15:01:22;;;;;;;3.50;0.73;;;;;;;;;;6048283;29;20052;-81
2022/10/06 15:04:25;;;;;;;3.00;0.68;;;;;;;;;;6036895;29;20576;-82
2022/10/06 15:10:51;;;;;;;6.38;1.17;;;;;;;;;;6046366;29;20041;-81
2022/10/06 15:13:58;;;;;;;4.10;0.77;;;;;;;;;;6048294;29;20053;-82
2022/10/06 15:16:59;;;;;;;5.75;0.75;;;;;;;;;;6017830;29;20115;-82
2022/10/06 15:20:01;;;;;;;5.57;0.50;;;;;;;;;;6025926;29;20391;-81
2022/10/06 15:23:03;;;;;;;4.95;0.70;;;;;;;;;;6048014;29;20144;-82
2022/10/06 15:29:25;;;;;;;3.78;0.90;;;;;;;;;;6048705;29;20053;-82
2022/10/06 15:32:27;;;;;;;3.87;0.73;;;;;;;;;;6048646;29;20064;-82
2022/10/06 15:35:31;;;;;;;4.38;0.70;;;;;;;;;;6031372;29;20045;-82
2022/10/06 15:38:35;;;;;;;3.40;0.77;;;;;;;;;;6029629;29;20057;-81
2022/10/06 15:41:38;;;;;;;4.60;1.00;;;;;;;;;;6034304;29;20049;-81
2022/10/06 15:44:40;;;;;;;3.33;0.82;;;;;;;;;;6050956;29;20057;-81
2022/10/06 15:47:41;;;;;;;3.70;0.80;;;;;;;;;;6046550;29;20430;-82
2022/10/06 15:50:43;;;;;;;3.38;0.82;;;;;;;;;;6044794;29;20053;-82
2022/10/06 15:53:45;;;;;;;3.78;0.70;;;;;;;;;;6028755;29;20120;-81
2022/10/06 15:56:50;;;;;;;5.47;0.90;;;;;;;;;;6044541;29;20060;-82
2022/10/06 15:59:52;;;;;;;4.50;1.20;;;;;;;;;;6043581;29;21001;-81
2022/10/06 16:02:53;;;;;;;5.65;1.20;;;;;;;;;;6014278;29;20049;-81
2022/10/06 16:05:59;;;;;;;5.32;1.13;;;;;;;;;;6050235;29;20048;-81
2022/10/06 16:09:00;;;;;;;6.03;1.10;;;;;;;;;;6031610;29;20120;-81
2022/10/06 16:12:04;;;;;;;3.55;0.85;;;;;;;;;;6014338;29;20528;-81
2022/10/06 16:15:06;;;;;;;5.07;1.30;;;;;;;;;;6045703;29;20040;-81
2022/10/06 16:18:08;;;;;;;5.00;1.00;;;;;;;;;;6046212;29;20058;-79
2022/10/06 16:21:09;;;;;;;3.03;1.08;;;;;;;;;;6043119;29;20045;-80
2022/10/06 16:24:11;;;;;;;3.72;1.08;;;;;;;;;;6048360;29;20131;-80
2022/10/06 16:27:14;;;;;;;5.47;1.55;;;;;;;;;;6027007;29;20053;-82
2022/10/06 16:30:16;;;;;;;7.32;1.85;;;;;;;;;;6043219;29;20048;-83
2022/10/06 16:33:17;;;;;;;29.40;11.40;;;;;;;;;;6030157;29;20056;-81
2022/10/06 16:36:19;;;;;;;21.23;7.70;;;;;;;;;;6010190;29;20057;-82
2022/10/06 16:39:22;;;;;;;11.88;5.20;;;;;;;;;;6046153;29;21586;-82
2022/10/06 16:42:23;;;;;;;16.63;7.10;;;;;;;;;;6030088;29;20067;-82
2022/10/06 16:45:25;;;;;;;10.63;5.20;;;;;;;;;;6029827;29;20049;-80
2022/10/06 16:48:28;;;;;;;8.90;4.20;;;;;;;;;;6033276;29;20045;-80
2022/10/06 16:51:32;;;;;;;10.70;3.28;;;;;;;;;;6032889;29;20063;-81
2022/10/06 16:54:34;;;;;;;5.93;2.47;;;;;;;;;;6031089;29;20211;-82
2022/10/06 16:57:36;;;;;;;29.10;15.67;;;;;;;;;;6048315;29;20050;-79
2022/10/06 17:00:38;;;;;;;17.80;6.85;;;;;;;;;;6045528;29;20064;-78
2022/10/06 17:03:40;;;;;;;17.83;10.63;;;;;;;;;;6014277;29;20053;-80
2022/10/06 17:07:04;;;;;;;15.52;8.77;;;;;;;;;;6051438;29;20177;-79
2022/10/06 17:10:06;;;;;;;5.88;1.70;;;;;;;;;;6028721;29;20044;-80
2022/10/06 17:13:21;;;;;;;7.68;1.75;;;;;;;;;;6033199;29;20045;-80
2022/10/06 17:16:26;;;;;;;5.43;1.60;;;;;;;;;;6026725;29;20060;-80
2022/10/06 17:19:29;;;;;;;6.20;1.70;;;;;;;;;;6045057;29;20064;-79
2022/10/06 17:22:31;;;;;;;;;;;;;;;;;;6045703;29;20532;-85
2022/10/06 17:25:33;;;;;;;4.38;1.73;;;;;;;;;;6026143;29;19923;-78
2022/10/06 17:28:35;;;;;;;7.63;2.20;;;;;;;;;;6046923;29;20104;-79
2022/10/06 17:31:38;;;;;;;7.17;4.40;;;;;;;;;;6043198;29;20051;-82
2022/10/06 17:34:40;;;;;;;8.27;3.45;;;;;;;;;;6032907;29;20473;-81
2022/10/06 17:37:43;;;;;;;6.28;2.35;;;;;;;;;;6015432;29;20059;-81
2022/10/06 17:40:44;;;;;;;11.20;3.10;;;;;;;;;;6034287;29;20059;-80
2022/10/06 17:43:49;;;;;;;6.40;3.10;;;;;;;;;;6032157;29;20425;-79
2022/10/06 17:46:54;;;;;;;7.88;3.45;;;;;;;;;;6043055;29;20036;-79
2022/10/06 17:49:56;;;;;;;8.38;3.72;;;;;;;;;;6049694;29;20053;-80
2022/10/06 17:53:00;;;;;;;6.47;4.18;;;;;;;;;;6049632;29;20041;-79
2022/10/06 17:56:07;;;;;;;5.30;3.67;;;;;;;;;;6041490;24;20063;-78
2022/10/06 17:59:12;;;;;;;7.63;5.18;;;;;;;;;;6035607;29;20052;-77
2022/10/06 18:02:15;;;;;;;6.65;2.55;;;;;;;;;;6036112;29;20468;-77
2022/10/06 18:05:17;;;;;;;6.57;2.67;;;;;;;;;;6049659;29;20049;-76
2022/10/06 18:08:22;;;;;;;7.68;2.90;;;;;;;;;;6047222;29;20658;-78
2022/10/06 18:11:40;;;;;;;7.20;2.47;;;;;;;;;;6044095;29;20552;-76
2022/10/06 18:14:42;;;;;;;9.25;3.15;;;;;;;;;;6035910;29;20056;-77
2022/10/06 18:17:44;;;;;;;6.13;2.95;;;;;;;;;;6034253;29;20060;-77
2022/10/06 18:20:47;;;;;;;7.53;3.22;;;;;;;;;;6036498;29;20076;-77
2022/10/06 18:23:49;;;;;;;7.20;2.88;;;;;;;;;;6035804;29;20067;-78
2022/10/06 18:26:53;;;;;;;7.60;3.20;;;;;;;;;;6038299;29;20067;-78
2022/10/06 18:29:55;;;;;;;7.38;3.95;;;;;;;;;;6041710;29;20044;-78
2022/10/06 18:32:56;;;;;;;8.93;3.92;;;;;;;;;;6051625;29;20064;-78
2022/10/06 18:36:18;;;;;;;8.07;3.45;;;;;;;;;;6053917;29;20056;-78
2022/10/06 18:39:20;;;;;;;6.88;3.05;;;;;;;;;;6047299;29;20055;-78
2022/10/06 18:42:22;;;;;;;8.52;2.53;;;;;;;;;;6054250;29;20746;-76
2022/10/06 18:48:55;;;;;;;8.48;2.33;;;;;;;;;;6026651;29;20053;-77
2022/10/06 18:51:56;;;;;;;7.00;3.08;;;;;;;;;;6050404;29;20336;-77
2022/10/06 18:54:59;;;;;;;5.65;3.00;;;;;;;;;;6047338;29;20103;-79
2022/10/06 18:58:01;;;;;;;10.52;3.00;;;;;;;;;;6043033;29;20082;-79